sensor_id;sensor_type;location;lat;lon;timestamp;pressure;altitude;pressure_sealevel;temperature;humidity
59289;BME280;45056;47.602;9.886;2023-05-19T00:01:01;93175.59;;;9.99;63.31
59289;BME280;45056;47.602;9.886;2023-05-19T00:03:29;93175.22;;;9.96;63.32
59289;BME280;45056;47.602;9.886;2023-05-19T00:06:01;93174.81;;;9.98;63.20
59289;BME280;45056;47.602;9.886;2023-05-19T00:08:33;93173.63;;;9.99;63.40
59289;BME280;45056;47.602;9.886;2023-05-19T00:11:03;93169.63;;;10.04;63.24
59289;BME280;45056;47.602;9.886;2023-05-19T00:13:32;93167.63;;;10.04;63.19
59289;BME280;45056;47.602;9.886;2023-05-19T00:16:01;93164.50;;;10.06;63.13
59289;BME280;45056;47.602;9.886;2023-05-19T00:18:29;93165.69;;;10.05;63.17
59289;BME280;45056;47.602;9.886;2023-05-19T00:20:57;93164.59;;;10.02;63.25
59289;BME280;45056;47.602;9.886;2023-05-19T00:23:27;93166.25;;;10.00;63.48
59289;BME280;45056;47.602;9.886;2023-05-19T00:25:55;93163.16;;;9.98;63.43
59289;BME280;45056;47.602;9.886;2023-05-19T00:28:23;93160.56;;;9.94;63.63
59289;BME280;45056;47.602;9.886;2023-05-19T00:30:51;93154.03;;;9.91;63.62
59289;BME280;45056;47.602;9.886;2023-05-19T00:33:19;93167.28;;;9.89;63.72
59289;BME280;45056;47.602;9.886;2023-05-19T00:35:47;93156.41;;;9.89;63.91
59289;BME280;45056;47.602;9.886;2023-05-19T00:38:16;93154.88;;;9.88;63.92
59289;BME280;45056;47.602;9.886;2023-05-19T00:40:45;93156.09;;;9.87;63.86
59289;BME280;45056;47.602;9.886;2023-05-19T00:43:14;93153.81;;;9.86;63.98
59289;BME280;45056;47.602;9.886;2023-05-19T00:45:42;93156.19;;;9.84;64.08
59289;BME280;45056;47.602;9.886;2023-05-19T00:48:10;93150.84;;;9.80;64.26
59289;BME280;45056;47.602;9.886;2023-05-19T00:50:39;93151.28;;;9.78;64.38
59289;BME280;45056;47.602;9.886;2023-05-19T00:53:08;93157.81;;;9.81;64.32
59289;BME280;45056;47.602;9.886;2023-05-19T00:55:37;93155.09;;;9.81;64.33
59289;BME280;45056;47.602;9.886;2023-05-19T00:58:09;93158.16;;;9.83;64.16
59289;BME280;45056;47.602;9.886;2023-05-19T01:00:39;93146.41;;;9.86;64.15
59289;BME280;45056;47.602;9.886;2023-05-19T01:03:08;93147.94;;;9.87;64.16
59289;BME280;45056;47.602;9.886;2023-05-19T01:05:38;93140.22;;;9.86;64.30
59289;BME280;45056;47.602;9.886;2023-05-19T01:08:07;93146.00;;;9.88;64.09
59289;BME280;45056;47.602;9.886;2023-05-19T01:10:36;93142.50;;;9.87;64.13
59289;BME280;45056;47.602;9.886;2023-05-19T01:13:07;93140.22;;;9.86;64.03
59289;BME280;45056;47.602;9.886;2023-05-19T01:15:44;93135.22;;;9.84;64.15
59289;BME280;45056;47.602;9.886;2023-05-19T01:18:37;93137.94;;;9.84;64.23
59289;BME280;45056;47.602;9.886;2023-05-19T01:21:33;93134.88;;;9.82;64.26
59289;BME280;45056;47.602;9.886;2023-05-19T01:28:04;93140.22;;;9.86;64.14
59289;BME280;45056;47.602;9.886;2023-05-19T01:30:54;93150.22;;;9.89;63.98
59289;BME280;45056;47.602;9.886;2023-05-19T01:33:26;93144.34;;;9.90;63.98
59289;BME280;45056;47.602;9.886;2023-05-19T01:35:59;93146.66;;;9.92;63.82
59289;BME280;45056;47.602;9.886;2023-05-19T01:38:33;93150.78;;;9.96;63.77
59289;BME280;45056;47.602;9.886;2023-05-19T01:41:05;93134.81;;;9.99;63.72
59289;BME280;45056;47.602;9.886;2023-05-19T01:43:34;93132.84;;;9.99;63.27
59289;BME280;45056;47.602;9.886;2023-05-19T01:46:04;93140.56;;;10.01;63.58
59289;BME280;45056;47.602;9.886;2023-05-19T01:48:33;93132.75;;;10.03;63.35
59289;BME280;45056;47.602;9.886;2023-05-19T01:51:02;93143.63;;;10.03;63.36
59289;BME280;45056;47.602;9.886;2023-05-19T01:53:30;93141.78;;;10.00;63.43
59289;BME280;45056;47.602;9.886;2023-05-19T01:55:58;93139.91;;;9.96;63.55
59289;BME280;45056;47.602;9.886;2023-05-19T01:58:37;93134.56;;;9.93;63.66
59289;BME280;45056;47.602;9.886;2023-05-19T02:01:29;93132.72;;;9.90;63.79
59289;BME280;45056;47.602;9.886;2023-05-19T02:04:15;93125.84;;;9.85;63.88
59289;BME280;45056;47.602;9.886;2023-05-19T02:06:59;93133.34;;;9.81;64.09
59289;BME280;45056;47.602;9.886;2023-05-19T02:09:37;93131.19;;;9.76;64.20
59289;BME280;45056;47.602;9.886;2023-05-19T02:12:19;93136.28;;;9.74;64.21
59289;BME280;45056;47.602;9.886;2023-05-19T02:15:00;93138.56;;;9.75;64.34
59289;BME280;45056;47.602;9.886;2023-05-19T02:17:36;93134.63;;;9.76;64.25
59289;BME280;45056;47.602;9.886;2023-05-19T02:20:08;93132.03;;;9.73;64.43
59289;BME280;45056;47.602;9.886;2023-05-19T02:22:37;93137.16;;;9.71;64.44
59289;BME280;45056;47.602;9.886;2023-05-19T02:25:06;93139.88;;;9.71;64.52
59289;BME280;45056;47.602;9.886;2023-05-19T02:27:37;93145.72;;;9.69;64.55
59289;BME280;45056;47.602;9.886;2023-05-19T02:30:06;93140.59;;;9.71;64.42
59289;BME280;45056;47.602;9.886;2023-05-19T02:32:37;93134.09;;;9.69;64.61
59289;BME280;45056;47.602;9.886;2023-05-19T02:35:05;93137.22;;;9.67;64.63
59289;BME280;45056;47.602;9.886;2023-05-19T02:37:34;93129.16;;;9.63;64.80
59289;BME280;45056;47.602;9.886;2023-05-19T02:40:02;93122.22;;;9.62;64.79
59289;BME280;45056;47.602;9.886;2023-05-19T02:42:31;93123.00;;;9.63;64.73
59289;BME280;45056;47.602;9.886;2023-05-19T02:44:59;93123.75;;;9.63;64.84
59289;BME280;45056;47.602;9.886;2023-05-19T02:47:27;93129.50;;;9.65;64.90
59289;BME280;45056;47.602;9.886;2023-05-19T02:49:57;93126.03;;;9.65;64.96
59289;BME280;45056;47.602;9.886;2023-05-19T02:52:25;93127.88;;;9.68;64.84
59289;BME280;45056;47.602;9.886;2023-05-19T02:54:53;93122.47;;;9.68;64.83
59289;BME280;45056;47.602;9.886;2023-05-19T02:57:21;93122.03;;;9.70;64.67
59289;BME280;45056;47.602;9.886;2023-05-19T02:59:49;93120.06;;;9.70;64.63
59289;BME280;45056;47.602;9.886;2023-05-19T03:02:17;93116.16;;;9.71;64.67
59289;BME280;45056;47.602;9.886;2023-05-19T03:04:46;93119.31;;;9.70;64.62
59289;BME280;45056;47.602;9.886;2023-05-19T03:07:15;93112.00;;;9.66;64.74
59289;BME280;45056;47.602;9.886;2023-05-19T03:09:43;93109.41;;;9.63;64.93
59289;BME280;45056;47.602;9.886;2023-05-19T03:12:11;93106.44;;;9.57;64.96
59289;BME280;45056;47.602;9.886;2023-05-19T03:14:39;93110.03;;;9.54;65.10
59289;BME280;45056;47.602;9.886;2023-05-19T03:17:07;93107.06;;;9.48;65.25
59289;BME280;45056;47.602;9.886;2023-05-19T03:19:36;93102.94;;;9.44;65.58
59289;BME280;45056;47.602;9.886;2023-05-19T03:22:04;93102.63;;;9.42;65.49
59289;BME280;45056;47.602;9.886;2023-05-19T03:24:33;93101.84;;;9.41;65.73
59289;BME280;45056;47.602;9.886;2023-05-19T03:27:01;93111.97;;;9.41;65.78
59289;BME280;45056;47.602;9.886;2023-05-19T03:29:30;93106.63;;;9.37;65.89
59289;BME280;45056;47.602;9.886;2023-05-19T03:31:58;93110.53;;;9.36;65.97
59289;BME280;45056;47.602;9.886;2023-05-19T03:34:27;93107.03;;;9.35;66.07
59289;BME280;45056;47.602;9.886;2023-05-19T03:36:55;93114.44;;;9.35;66.01
59289;BME280;45056;47.602;9.886;2023-05-19T03:39:23;93114.44;;;9.35;66.09
59289;BME280;45056;47.602;9.886;2023-05-19T03:41:52;93109.75;;;9.35;66.18
59289;BME280;45056;47.602;9.886;2023-05-19T03:44:21;93114.00;;;9.36;66.09
59289;BME280;45056;47.602;9.886;2023-05-19T03:46:49;93112.81;;;9.37;66.14
59289;BME280;45056;47.602;9.886;2023-05-19T03:49:17;93110.09;;;9.37;66.00
59289;BME280;45056;47.602;9.886;2023-05-19T03:51:45;93110.09;;;9.37;66.11
59289;BME280;45056;47.602;9.886;2023-05-19T03:54:13;93110.09;;;9.37;66.28
59289;BME280;45056;47.602;9.886;2023-05-19T03:56:42;93113.16;;;9.40;66.13
59289;BME280;45056;47.602;9.886;2023-05-19T03:59:11;93106.84;;;9.43;66.22
59289;BME280;45056;47.602;9.886;2023-05-19T04:01:39;93108.38;;;9.44;66.10
59289;BME280;45056;47.602;9.886;2023-05-19T04:04:07;93118.06;;;9.45;66.12
59289;BME280;45056;47.602;9.886;2023-05-19T04:06:35;93113.03;;;9.43;66.26
59289;BME280;45056;47.602;9.886;2023-05-19T04:09:10;93113.16;;;9.40;66.41
59289;BME280;45056;47.602;9.886;2023-05-19T04:11:39;93105.88;;;9.36;66.48
59289;BME280;45056;47.602;9.886;2023-05-19T04:14:08;93108.22;;;9.34;66.74
59289;BME280;45056;47.602;9.886;2023-05-19T04:16:37;93110.94;;;9.34;66.73
59289;BME280;45056;47.602;9.886;2023-05-19T04:19:05;93110.53;;;9.36;66.79
59289;BME280;45056;47.602;9.886;2023-05-19T04:21:34;93108.13;;;9.38;66.77
59289;BME280;45056;47.602;9.886;2023-05-19T04:24:02;93107.38;;;9.37;66.81
59289;BME280;45056;47.602;9.886;2023-05-19T04:26:32;93115.53;;;9.37;66.76
59289;BME280;45056;47.602;9.886;2023-05-19T04:29:00;93118.59;;;9.40;66.95
59289;BME280;45056;47.602;9.886;2023-05-19T04:31:30;93120.44;;;9.43;66.82
59289;BME280;45056;47.602;9.886;2023-05-19T04:34:01;93121.09;;;9.47;66.70
59289;BME280;45056;47.602;9.886;2023-05-19T04:36:29;93122.50;;;9.51;66.55
59289;BME280;45056;47.602;9.886;2023-05-19T04:38:56;93117.00;;;9.55;66.11
59289;BME280;45056;47.602;9.886;2023-05-19T04:41:27;93119.94;;;9.61;66.38
59289;BME280;45056;47.602;9.886;2023-05-19T04:43:55;93109.41;;;9.63;66.16
59289;BME280;45056;47.602;9.886;2023-05-19T04:46:23;93115.09;;;9.69;66.26
59289;BME280;45056;47.602;9.886;2023-05-19T04:48:52;93119.53;;;9.75;65.96
59289;BME280;45056;47.602;9.886;2023-05-19T04:51:23;93112.28;;;9.85;65.82
59289;BME280;45056;47.602;9.886;2023-05-19T04:53:53;93106.22;;;9.94;65.48
59289;BME280;45056;47.602;9.886;2023-05-19T04:56:21;93105.34;;;10.10;65.13
59289;BME280;45056;47.602;9.886;2023-05-19T04:58:49;93111.66;;;10.20;64.51
59289;BME280;45056;47.602;9.886;2023-05-19T05:01:19;93115.47;;;10.22;64.61
59289;BME280;45056;47.602;9.886;2023-05-19T05:03:51;93109.69;;;10.20;64.64
59289;BME280;45056;47.602;9.886;2023-05-19T05:06:20;93120.91;;;10.22;64.64
59289;BME280;45056;47.602;9.886;2023-05-19T05:08:50;93119.16;;;10.29;64.45
59289;BME280;45056;47.602;9.886;2023-05-19T05:11:19;93112.75;;;10.35;64.28
59289;BME280;45056;47.602;9.886;2023-05-19T05:13:48;93115.38;;;10.39;63.98
59289;BME280;45056;47.602;9.886;2023-05-19T05:16:16;93116.66;;;10.34;64.01
59289;BME280;45056;47.602;9.886;2023-05-19T05:18:45;93120.34;;;10.28;64.19
59289;BME280;45056;47.602;9.886;2023-05-19T05:21:14;93118.94;;;10.23;64.26
59289;BME280;45056;47.602;9.886;2023-05-19T05:23:43;93120.56;;;10.20;64.48
59289;BME280;45056;47.602;9.886;2023-05-19T05:26:17;93122.97;;;10.18;64.51
59289;BME280;45056;47.602;9.886;2023-05-19T05:28:46;93122.97;;;10.18;64.78
59289;BME280;45056;47.602;9.886;2023-05-19T05:31:15;93127.53;;;10.21;64.64
59289;BME280;45056;47.602;9.886;2023-05-19T05:33:44;93124.72;;;10.25;64.63
59289;BME280;45056;47.602;9.886;2023-05-19T05:36:12;93117.97;;;10.30;64.60
59289;BME280;45056;47.602;9.886;2023-05-19T05:38:40;93126.47;;;10.32;64.53
59289;BME280;45056;47.602;9.886;2023-05-19T05:41:08;93123.75;;;10.32;64.58
59289;BME280;45056;47.602;9.886;2023-05-19T05:43:37;93126.16;;;10.30;64.62
59289;BME280;45056;47.602;9.886;2023-05-19T05:46:05;93128.09;;;10.29;64.75
59289;BME280;45056;47.602;9.886;2023-05-19T05:48:34;93136.56;;;10.31;64.81
59289;BME280;45056;47.602;9.886;2023-05-19T05:51:03;93131.03;;;10.35;64.69
59289;BME280;45056;47.602;9.886;2023-05-19T05:53:40;93128.63;;;10.37;64.70
59289;BME280;45056;47.602;9.886;2023-05-19T05:56:12;93128.88;;;10.43;64.46
59289;BME280;45056;47.602;9.886;2023-05-19T05:58:42;93134.97;;;10.47;64.42
59289;BME280;45056;47.602;9.886;2023-05-19T06:01:10;93138.78;;;10.49;64.39
59289;BME280;45056;47.602;9.886;2023-05-19T06:03:41;93136.81;;;10.50;64.29
59289;BME280;45056;47.602;9.886;2023-05-19T06:06:10;93137.56;;;10.50;64.21
59289;BME280;45056;47.602;9.886;2023-05-19T06:08:38;93137.47;;;10.54;64.34
59289;BME280;45056;47.602;9.886;2023-05-19T06:11:07;93136.50;;;10.61;64.22
59289;BME280;45056;47.602;9.886;2023-05-19T06:13:35;93130.81;;;10.68;64.04
59289;BME280;45056;47.602;9.886;2023-05-19T06:16:06;93136.91;;;10.72;63.89
59289;BME280;45056;47.602;9.886;2023-05-19T06:18:34;93129.94;;;10.71;63.83
59289;BME280;45056;47.602;9.886;2023-05-19T06:21:03;93131.78;;;10.74;63.75
59289;BME280;45056;47.602;9.886;2023-05-19T06:23:31;93128.50;;;10.79;63.55
59289;BME280;45056;47.602;9.886;2023-05-19T06:25:59;93131.88;;;10.83;63.57
59289;BME280;45056;47.602;9.886;2023-05-19T06:28:27;93139.47;;;10.89;63.48
59289;BME280;45056;47.602;9.886;2023-05-19T06:30:55;93130.78;;;10.94;63.42
59289;BME280;45056;47.602;9.886;2023-05-19T06:33:25;93125.63;;;11.09;63.24
59289;BME280;45056;47.602;9.886;2023-05-19T06:35:53;93125.56;;;11.22;62.99
59289;BME280;45056;47.602;9.886;2023-05-19T06:38:21;93135.03;;;11.30;62.57
59289;BME280;45056;47.602;9.886;2023-05-19T06:40:49;93132.50;;;11.36;62.02
59289;BME280;45056;47.602;9.886;2023-05-19T06:43:17;93131.63;;;11.39;61.75
59289;BME280;45056;47.602;9.886;2023-05-19T06:45:45;93138.94;;;11.42;61.98
59289;BME280;45056;47.602;9.886;2023-05-19T06:48:13;93136.69;;;11.50;62.04
59289;BME280;45056;47.602;9.886;2023-05-19T06:50:43;93136.56;;;11.53;61.76
59289;BME280;45056;47.602;9.886;2023-05-19T06:53:11;93139.19;;;11.57;61.75
59289;BME280;45056;47.602;9.886;2023-05-19T06:55:39;93140.13;;;11.63;61.65
59289;BME280;45056;47.602;9.886;2023-05-19T06:58:07;93142.41;;;11.65;61.27
59289;BME280;45056;47.602;9.886;2023-05-19T07:00:35;93144.06;;;11.62;61.26
59289;BME280;45056;47.602;9.886;2023-05-19T07:03:03;93145.28;;;11.61;61.32
59289;BME280;45056;47.602;9.886;2023-05-19T07:05:31;93140.44;;;11.65;61.46
59289;BME280;45056;47.602;9.886;2023-05-19T07:08:00;93143.69;;;11.73;61.31
59289;BME280;45056;47.602;9.886;2023-05-19T07:10:29;93148.13;;;11.80;61.22
59289;BME280;45056;47.602;9.886;2023-05-19T07:12:57;93142.53;;;11.83;60.85
59289;BME280;45056;47.602;9.886;2023-05-19T07:15:25;93133.16;;;11.84;60.87
59289;BME280;45056;47.602;9.886;2023-05-19T07:17:53;93147.22;;;11.83;60.87
59289;BME280;45056;47.602;9.886;2023-05-19T07:20:21;93142.75;;;11.89;60.75
59289;BME280;45056;47.602;9.886;2023-05-19T07:22:49;93127.94;;;12.00;60.84
59289;BME280;45056;47.602;9.886;2023-05-19T07:25:19;93140.00;;;12.11;60.65
59289;BME280;45056;47.602;9.886;2023-05-19T07:27:47;93134.78;;;12.26;60.28
59289;BME280;45056;47.602;9.886;2023-05-19T07:30:15;93133.59;;;12.37;60.05
59289;BME280;45056;47.602;9.886;2023-05-19T07:32:43;93131.38;;;12.45;59.76
59289;BME280;45056;47.602;9.886;2023-05-19T07:35:11;93124.69;;;12.46;59.59
59289;BME280;45056;47.602;9.886;2023-05-19T07:37:39;93124.25;;;12.47;59.56
59289;BME280;45056;47.602;9.886;2023-05-19T07:40:07;93125.78;;;12.48;59.71
59289;BME280;45056;47.602;9.886;2023-05-19T07:42:37;93123.69;;;12.52;59.64
59289;BME280;45056;47.602;9.886;2023-05-19T07:45:06;93125.66;;;12.61;59.52
59289;BME280;45056;47.602;9.886;2023-05-19T07:47:35;93124.63;;;12.68;59.11
59289;BME280;45056;47.602;9.886;2023-05-19T07:50:05;93120.56;;;12.73;58.82
59289;BME280;45056;47.602;9.886;2023-05-19T07:52:33;93113.56;;;12.72;58.92
59289;BME280;45056;47.602;9.886;2023-05-19T07:55:02;93119.47;;;12.70;58.88
59289;BME280;45056;47.602;9.886;2023-05-19T07:57:30;93123.88;;;12.67;58.64
59289;BME280;45056;47.602;9.886;2023-05-19T08:00:00;93123.56;;;12.65;58.58
59289;BME280;45056;47.602;9.886;2023-05-19T08:02:28;93120.69;;;12.69;58.83
59289;BME280;45056;47.602;9.886;2023-05-19T08:04:56;93126.31;;;12.75;58.59
59289;BME280;45056;47.602;9.886;2023-05-19T08:07:24;93131.06;;;12.83;58.75
59289;BME280;45056;47.602;9.886;2023-05-19T08:09:52;93132.88;;;12.96;58.29
59289;BME280;45056;47.602;9.886;2023-05-19T08:12:21;93129.41;;;13.05;57.54
59289;BME280;45056;47.602;9.886;2023-05-19T08:14:49;93127.91;;;13.13;57.41
59289;BME280;45056;47.602;9.886;2023-05-19T08:17:19;93124.88;;;13.20;56.95
59289;BME280;45056;47.602;9.886;2023-05-19T08:19:47;93124.59;;;13.27;56.68
59289;BME280;45056;47.602;9.886;2023-05-19T08:22:15;93126.72;;;13.33;56.49
59289;BME280;45056;47.602;9.886;2023-05-19T08:24:43;93128.25;;;13.43;56.60
59289;BME280;45056;47.602;9.886;2023-05-19T08:27:11;93127.50;;;13.52;56.36
59289;BME280;45056;47.602;9.886;2023-05-19T08:29:39;93124.94;;;13.67;55.79
59289;BME280;45056;47.602;9.886;2023-05-19T08:32:07;93121.56;;;13.81;55.01
59289;BME280;45056;47.602;9.886;2023-05-19T08:34:36;93118.19;;;13.87;54.99
59289;BME280;45056;47.602;9.886;2023-05-19T08:37:04;93112.13;;;13.92;54.98
59289;BME280;45056;47.602;9.886;2023-05-19T08:39:32;93122.00;;;13.89;55.04
59289;BME280;45056;47.602;9.886;2023-05-19T08:42:01;93117.00;;;13.78;54.72
59289;BME280;45056;47.602;9.886;2023-05-19T08:44:29;93120.66;;;13.66;55.09
59289;BME280;45056;47.602;9.886;2023-05-19T08:47:01;93122.94;;;13.58;55.33
59289;BME280;45056;47.602;9.886;2023-05-19T08:49:35;93133.28;;;13.63;55.70
59289;BME280;45056;47.602;9.886;2023-05-19T08:52:21;93124.59;;;13.83;55.68
59289;BME280;45056;47.602;9.886;2023-05-19T08:55:03;93114.88;;;13.92;54.98
59289;BME280;45056;47.602;9.886;2023-05-19T08:57:35;93115.91;;;13.94;55.13
59289;BME280;45056;47.602;9.886;2023-05-19T09:00:05;93117.75;;;13.88;54.63
59289;BME280;45056;47.602;9.886;2023-05-19T09:02:37;93117.59;;;13.82;54.88
59289;BME280;45056;47.602;9.886;2023-05-19T09:05:09;93125.22;;;13.78;54.79
59289;BME280;45056;47.602;9.886;2023-05-19T09:07:37;93118.69;;;13.76;54.54
59289;BME280;45056;47.602;9.886;2023-05-19T09:10:09;93116.25;;;13.78;54.72
59289;BME280;45056;47.602;9.886;2023-05-19T09:12:40;93116.84;;;13.82;54.69
59289;BME280;45056;47.602;9.886;2023-05-19T09:15:09;93114.13;;;13.82;54.68
59289;BME280;45056;47.602;9.886;2023-05-19T09:17:38;93117.44;;;13.86;54.48
59289;BME280;45056;47.602;9.886;2023-05-19T09:20:08;93115.16;;;13.84;54.49
59289;BME280;45056;47.602;9.886;2023-05-19T09:22:41;93107.28;;;13.77;54.37
59289;BME280;45056;47.602;9.886;2023-05-19T09:25:17;93104.41;;;13.81;54.90
59289;BME280;45056;47.602;9.886;2023-05-19T09:27:46;93108.03;;;13.87;54.92
59289;BME280;45056;47.602;9.886;2023-05-19T09:30:16;93105.91;;;13.91;54.67
59289;BME280;45056;47.602;9.886;2023-05-19T09:32:44;93108.63;;;13.91;54.59
59289;BME280;45056;47.602;9.886;2023-05-19T09:35:14;93103.16;;;13.91;54.46
59289;BME280;45056;47.602;9.886;2023-05-19T09:37:45;93106.22;;;13.84;54.50
59289;BME280;45056;47.602;9.886;2023-05-19T09:40:15;93106.38;;;13.80;54.73
59289;BME280;45056;47.602;9.886;2023-05-19T09:42:43;93112.78;;;13.68;54.79
59289;BME280;45056;47.602;9.886;2023-05-19T09:45:11;93108.22;;;13.55;54.92
59289;BME280;45056;47.602;9.886;2023-05-19T09:47:40;93109.59;;;13.51;55.24
59289;BME280;45056;47.602;9.886;2023-05-19T09:50:11;93109.59;;;13.51;55.54
59289;BME280;45056;47.602;9.886;2023-05-19T09:52:42;93107.00;;;13.56;55.67
59289;BME280;45056;47.602;9.886;2023-05-19T09:55:12;93103.19;;;13.63;55.16
59289;BME280;45056;47.602;9.886;2023-05-19T09:57:41;93101.53;;;13.66;55.16
59289;BME280;45056;47.602;9.886;2023-05-19T10:00:12;93110.19;;;13.74;54.88
59289;BME280;45056;47.602;9.886;2023-05-19T10:02:45;93108.50;;;13.76;54.71
59289;BME280;45056;47.602;9.886;2023-05-19T10:05:16;93100.44;;;13.82;55.08
59289;BME280;45056;47.602;9.886;2023-05-19T10:07:49;93108.03;;;13.87;54.79
59289;BME280;45056;47.602;9.886;2023-05-19T10:10:21;93102.25;;;13.94;54.94
59289;BME280;45056;47.602;9.886;2023-05-19T10:12:49;93112.84;;;14.02;54.78
59289;BME280;45056;47.602;9.886;2023-05-19T10:15:18;93109.53;;;14.07;54.40
59289;BME280;45056;47.602;9.886;2023-05-19T10:17:45;93106.16;;;14.12;54.30
59289;BME280;45056;47.602;9.886;2023-05-19T10:20:16;93106.13;;;14.21;54.69
59289;BME280;45056;47.602;9.886;2023-05-19T10:22:46;93114.00;;;14.28;54.23
59289;BME280;45056;47.602;9.886;2023-05-19T10:25:15;93101.38;;;14.31;53.60
59289;BME280;45056;47.602;9.886;2023-05-19T10:27:50;93104.88;;;14.32;53.68
59289;BME280;45056;47.602;9.886;2023-05-19T10:30:27;93103.81;;;14.29;53.61
59289;BME280;45056;47.602;9.886;2023-05-19T10:33:00;93107.94;;;14.24;53.60
59289;BME280;45056;47.602;9.886;2023-05-19T10:35:53;93099.59;;;14.19;53.70
59289;BME280;45056;47.602;9.886;2023-05-19T10:38:46;93105.81;;;14.19;53.88
59289;BME280;45056;47.602;9.886;2023-05-19T10:41:26;93106.59;;;14.20;53.63
59289;BME280;45056;47.602;9.886;2023-05-19T10:44:11;93113.59;;;14.21;53.84
59289;BME280;45056;47.602;9.886;2023-05-19T10:46:49;93110.09;;;14.20;53.61
59289;BME280;45056;47.602;9.886;2023-05-19T10:49:20;93115.25;;;14.18;53.71
59289;BME280;45056;47.602;9.886;2023-05-19T10:51:54;93110.84;;;14.21;53.50
59289;BME280;45056;47.602;9.886;2023-05-19T10:54:40;93107.19;;;14.24;53.95
59289;BME280;45056;47.602;9.886;2023-05-19T10:57:13;93112.97;;;14.26;53.84
59289;BME280;45056;47.602;9.886;2023-05-19T10:59:43;93108.22;;;14.26;53.32
59289;BME280;45056;47.602;9.886;2023-05-19T11:02:37;93105.16;;;14.34;53.32
59289;BME280;45056;47.602;9.886;2023-05-19T11:05:09;93110.97;;;14.36;53.35
59289;BME280;45056;47.602;9.886;2023-05-19T11:07:53;93102.25;;;14.37;53.19
59289;BME280;45056;47.602;9.886;2023-05-19T11:10:24;93107.75;;;14.37;53.64
59289;BME280;45056;47.602;9.886;2023-05-19T11:12:52;93101.53;;;14.37;53.16
59289;BME280;45056;47.602;9.886;2023-05-19T11:15:25;93104.13;;;14.31;53.44
59289;BME280;45056;47.602;9.886;2023-05-19T11:17:54;93099.22;;;14.35;53.84
59289;BME280;45056;47.602;9.886;2023-05-19T11:20:23;93096.94;;;14.43;53.84
59289;BME280;45056;47.602;9.886;2023-05-19T11:23:07;93102.13;;;14.41;53.36
59289;BME280;45056;47.602;9.886;2023-05-19T11:25:44;93104.84;;;14.41;53.26
59289;BME280;45056;47.602;9.886;2023-05-19T11:28:15;93102.13;;;14.41;53.47
59289;BME280;45056;47.602;9.886;2023-05-19T11:30:47;93101.03;;;14.38;53.74
59289;BME280;45056;47.602;9.886;2023-05-19T11:33:16;93107.09;;;14.42;53.75
59289;BME280;45056;47.602;9.886;2023-05-19T11:35:46;93097.53;;;14.47;53.56
59289;BME280;45056;47.602;9.886;2023-05-19T11:38:15;93099.16;;;14.54;53.64
59289;BME280;45056;47.602;9.886;2023-05-19T11:40:47;93099.31;;;14.50;53.16
59289;BME280;45056;47.602;9.886;2023-05-19T11:43:15;93095.81;;;14.50;53.22
59289;BME280;45056;47.602;9.886;2023-05-19T11:45:44;93092.56;;;14.61;53.57
59289;BME280;45056;47.602;9.886;2023-05-19T11:48:12;93094.84;;;14.71;52.89
59289;BME280;45056;47.602;9.886;2023-05-19T11:50:41;93090.38;;;14.83;52.52
59289;BME280;45056;47.602;9.886;2023-05-19T11:53:11;93081.22;;;14.86;52.06
59289;BME280;45056;47.602;9.886;2023-05-19T11:55:45;93078.47;;;14.86;51.87
59289;BME280;45056;47.602;9.886;2023-05-19T11:58:14;93079.88;;;14.82;51.66
59289;BME280;45056;47.602;9.886;2023-05-19T12:00:43;93073.34;;;14.79;52.04
59289;BME280;45056;47.602;9.886;2023-05-19T12:03:12;93073.81;;;14.78;52.38
59289;BME280;45056;47.602;9.886;2023-05-19T12:05:43;93068.81;;;14.76;52.39
59289;BME280;45056;47.602;9.886;2023-05-19T12:08:12;93067.59;;;14.77;52.55
59289;BME280;45056;47.602;9.886;2023-05-19T12:10:40;93061.63;;;14.79;52.48
59289;BME280;45056;47.602;9.886;2023-05-19T12:13:11;93059.94;;;14.81;52.67
59289;BME280;45056;47.602;9.886;2023-05-19T12:15:39;93062.22;;;14.83;52.56
59289;BME280;45056;47.602;9.886;2023-05-19T12:18:07;93064.13;;;14.92;52.70
59289;BME280;45056;47.602;9.886;2023-05-19T12:20:35;93059.06;;;14.99;52.04
59289;BME280;45056;47.602;9.886;2023-05-19T12:23:04;93058.63;;;15.01;51.98
59289;BME280;45056;47.602;9.886;2023-05-19T12:25:33;93062.69;;;15.06;52.28
59289;BME280;45056;47.602;9.886;2023-05-19T12:28:01;93069.78;;;15.12;52.67
59289;BME280;45056;47.602;9.886;2023-05-19T12:30:31;93067.63;;;15.17;52.88
59289;BME280;45056;47.602;9.886;2023-05-19T12:33:01;93058.28;;;15.23;52.53
59289;BME280;45056;47.602;9.886;2023-05-19T12:35:31;93061.72;;;15.33;52.64
59289;BME280;45056;47.602;9.886;2023-05-19T12:38:02;93058.63;;;15.40;52.15
59289;BME280;45056;47.602;9.886;2023-05-19T12:40:32;93054.94;;;15.43;51.72
59289;BME280;45056;47.602;9.886;2023-05-19T12:43:00;93052.75;;;15.48;51.56
59289;BME280;45056;47.602;9.886;2023-05-19T12:45:34;93056.34;;;15.54;51.56
59289;BME280;45056;47.602;9.886;2023-05-19T12:48:03;93048.81;;;15.64;51.75
59289;BME280;45056;47.602;9.886;2023-05-19T12:50:32;93053.81;;;15.65;51.45
59289;BME280;45056;47.602;9.886;2023-05-19T12:53:00;93051.66;;;15.69;51.48
59289;BME280;45056;47.602;9.886;2023-05-19T12:55:28;93054.69;;;15.71;51.45
59289;BME280;45056;47.602;9.886;2023-05-19T12:57:56;93051.28;;;15.77;51.61
59289;BME280;45056;47.602;9.886;2023-05-19T13:00:25;93041.16;;;15.83;51.71
59289;BME280;45056;47.602;9.886;2023-05-19T13:02:59;93041.44;;;15.85;51.49
59289;BME280;45056;47.602;9.886;2023-05-19T13:05:31;93038.81;;;15.91;51.31
59289;BME280;45056;47.602;9.886;2023-05-19T13:08:03;93036.19;;;15.96;51.02
59289;BME280;45056;47.602;9.886;2023-05-19T13:10:34;93036.72;;;16.00;50.66
59289;BME280;45056;47.602;9.886;2023-05-19T13:13:04;93036.53;;;16.04;50.79
59289;BME280;45056;47.602;9.886;2023-05-19T13:15:36;93040.88;;;16.11;51.17
59289;BME280;45056;47.602;9.886;2023-05-19T13:18:07;93031.41;;;16.12;51.03
59289;BME280;45056;47.602;9.886;2023-05-19T13:20:38;93029.63;;;16.09;50.76
59289;BME280;45056;47.602;9.886;2023-05-19T13:23:09;93022.34;;;16.06;50.87
59289;BME280;45056;47.602;9.886;2023-05-19T13:25:38;93021.88;;;16.07;50.92